sensor_id;sensor_type;location;lat;lon;timestamp;temperature;humidity
26186;DHT22;20067;48.764;9.176;2024-01-15T00:01:57;0.30;91.30
26186;DHT22;20067;48.764;9.176;2024-01-15T00:04:23;0.40;91.30
26186;DHT22;20067;48.764;9.176;2024-01-15T00:06:49;0.50;91.30
26186;DHT22;20067;48.764;9.176;2024-01-15T00:09:15;0.60;91.30
26186;DHT22;20067;48.764;9.176;2024-01-15T00:11:42;0.50;91.30
26186;DHT22;20067;48.764;9.176;2024-01-15T00:14:08;0.60;91.30
26186;DHT22;20067;48.764;9.176;2024-01-15T00:16:34;0.70;91.30
26186;DHT22;20067;48.764;9.176;2024-01-15T00:18:59;0.60;91.30
26186;DHT22;20067;48.764;9.176;2024-01-15T00:21:25;0.40;91.30
26186;DHT22;20067;48.764;9.176;2024-01-15T00:23:51;0.30;91.30
26186;DHT22;20067;48.764;9.176;2024-01-15T00:26:17;0.30;91.30
26186;DHT22;20067;48.764;9.176;2024-01-15T00:28:43;0.30;91.30
26186;DHT22;20067;48.764;9.176;2024-01-15T00:31:08;0.10;91.30
26186;DHT22;20067;48.764;9.176;2024-01-15T00:33:34;0.10;91.30
26186;DHT22;20067;48.764;9.176;2024-01-15T00:36:00;0.10;91.30
26186;DHT22;20067;48.764;9.176;2024-01-15T00:38:26;0.10;91.30
26186;DHT22;20067;48.764;9.176;2024-01-15T00:40:51;0.10;91.30
26186;DHT22;20067;48.764;9.176;2024-01-15T00:43:17;0.20;91.30
26186;DHT22;20067;48.764;9.176;2024-01-15T00:45:44;0.20;91.30
26186;DHT22;20067;48.764;9.176;2024-01-15T00:48:10;0.10;91.30
26186;DHT22;20067;48.764;9.176;2024-01-15T00:50:36;0.00;91.30
26186;DHT22;20067;48.764;9.176;2024-01-15T00:53:02;0.00;91.30
26186;DHT22;20067;48.764;9.176;2024-01-15T00:55:28;-0.10;91.30
26186;DHT22;20067;48.764;9.176;2024-01-15T00:57:54;-0.10;91.30
26186;DHT22;20067;48.764;9.176;2024-01-15T01:00:20;0.00;91.30
26186;DHT22;20067;48.764;9.176;2024-01-15T01:02:46;0.00;91.30
26186;DHT22;20067;48.764;9.176;2024-01-15T01:05:12;0.00;91.30
26186;DHT22;20067;48.764;9.176;2024-01-15T01:07:38;0.00;91.30
26186;DHT22;20067;48.764;9.176;2024-01-15T01:10:04;0.10;91.30
26186;DHT22;20067;48.764;9.176;2024-01-15T01:12:30;0.10;91.30
26186;DHT22;20067;48.764;9.176;2024-01-15T01:14:56;0.20;91.30
26186;DHT22;20067;48.764;9.176;2024-01-15T01:17:22;0.20;91.30
26186;DHT22;20067;48.764;9.176;2024-01-15T01:19:49;0.10;91.30
26186;DHT22;20067;48.764;9.176;2024-01-15T01:22:15;0.10;91.30
26186;DHT22;20067;48.764;9.176;2024-01-15T01:24:40;0.10;91.30
26186;DHT22;20067;48.764;9.176;2024-01-15T01:27:06;0.20;91.30
26186;DHT22;20067;48.764;9.176;2024-01-15T01:29:32;0.20;91.30
26186;DHT22;20067;48.764;9.176;2024-01-15T01:31:58;0.20;91.30
26186;DHT22;20067;48.764;9.176;2024-01-15T01:34:23;0.20;91.30
26186;DHT22;20067;48.764;9.176;2024-01-15T01:36:50;0.20;91.30
26186;DHT22;20067;48.764;9.176;2024-01-15T01:39:15;0.30;91.30
26186;DHT22;20067;48.764;9.176;2024-01-15T01:41:41;0.30;91.30
26186;DHT22;20067;48.764;9.176;2024-01-15T01:44:07;0.30;91.30
26186;DHT22;20067;48.764;9.176;2024-01-15T01:46:33;0.30;91.30
26186;DHT22;20067;48.764;9.176;2024-01-15T01:48:59;0.40;91.30
26186;DHT22;20067;48.764;9.176;2024-01-15T01:51:30;0.40;91.30
26186;DHT22;20067;48.764;9.176;2024-01-15T01:53:56;0.40;91.30
26186;DHT22;20067;48.764;9.176;2024-01-15T01:56:22;0.40;91.30
26186;DHT22;20067;48.764;9.176;2024-01-15T01:58:48;0.40;91.30
26186;DHT22;20067;48.764;9.176;2024-01-15T02:01:13;0.40;91.30
26186;DHT22;20067;48.764;9.176;2024-01-15T02:03:41;0.50;91.30
26186;DHT22;20067;48.764;9.176;2024-01-15T02:06:07;0.50;91.30
26186;DHT22;20067;48.764;9.176;2024-01-15T02:08:34;0.50;91.30
26186;DHT22;20067;48.764;9.176;2024-01-15T02:11:00;0.40;91.30
26186;DHT22;20067;48.764;9.176;2024-01-15T02:13:26;0.50;91.30
26186;DHT22;20067;48.764;9.176;2024-01-15T02:15:51;0.60;91.30
26186;DHT22;20067;48.764;9.176;2024-01-15T02:18:17;0.70;91.30
26186;DHT22;20067;48.764;9.176;2024-01-15T02:20:43;0.60;91.30
26186;DHT22;20067;48.764;9.176;2024-01-15T02:23:13;0.60;91.30
26186;DHT22;20067;48.764;9.176;2024-01-15T02:25:47;0.60;91.30
26186;DHT22;20067;48.764;9.176;2024-01-15T02:28:15;0.70;91.30
26186;DHT22;20067;48.764;9.176;2024-01-15T02:30:41;0.60;91.30
26186;DHT22;20067;48.764;9.176;2024-01-15T02:33:08;0.60;91.30
26186;DHT22;20067;48.764;9.176;2024-01-15T02:35:34;0.60;91.30
26186;DHT22;20067;48.764;9.176;2024-01-15T02:38:02;0.60;91.30
26186;DHT22;20067;48.764;9.176;2024-01-15T02:40:28;0.50;91.30
26186;DHT22;20067;48.764;9.176;2024-01-15T02:42:54;0.40;91.30
26186;DHT22;20067;48.764;9.176;2024-01-15T02:45:20;0.40;91.30
26186;DHT22;20067;48.764;9.176;2024-01-15T02:47:46;0.40;91.30
26186;DHT22;20067;48.764;9.176;2024-01-15T02:50:11;0.40;91.30
26186;DHT22;20067;48.764;9.176;2024-01-15T02:52:37;0.40;91.30
26186;DHT22;20067;48.764;9.176;2024-01-15T02:55:03;0.40;91.30
26186;DHT22;20067;48.764;9.176;2024-01-15T02:57:29;0.40;91.30
26186;DHT22;20067;48.764;9.176;2024-01-15T02:59:54;0.30;91.30
26186;DHT22;20067;48.764;9.176;2024-01-15T03:02:20;0.30;91.30
26186;DHT22;20067;48.764;9.176;2024-01-15T03:04:46;0.30;91.30
26186;DHT22;20067;48.764;9.176;2024-01-15T03:07:12;0.30;91.30
26186;DHT22;20067;48.764;9.176;2024-01-15T03:09:37;0.40;91.30
26186;DHT22;20067;48.764;9.176;2024-01-15T03:12:04;0.40;91.30
26186;DHT22;20067;48.764;9.176;2024-01-15T03:14:29;0.30;91.30
26186;DHT22;20067;48.764;9.176;2024-01-15T03:16:55;0.40;91.30
26186;DHT22;20067;48.764;9.176;2024-01-15T03:19:21;0.40;91.30
26186;DHT22;20067;48.764;9.176;2024-01-15T03:21:46;0.40;91.30
26186;DHT22;20067;48.764;9.176;2024-01-15T03:24:12;0.30;91.30
26186;DHT22;20067;48.764;9.176;2024-01-15T03:26:38;0.40;91.30
26186;DHT22;20067;48.764;9.176;2024-01-15T03:29:03;0.40;91.30
26186;DHT22;20067;48.764;9.176;2024-01-15T03:31:29;0.40;91.30
26186;DHT22;20067;48.764;9.176;2024-01-15T03:33:55;0.40;91.30
26186;DHT22;20067;48.764;9.176;2024-01-15T03:36:22;0.50;91.30
26186;DHT22;20067;48.764;9.176;2024-01-15T03:38:48;0.50;91.30
26186;DHT22;20067;48.764;9.176;2024-01-15T03:41:13;0.60;91.30
26186;DHT22;20067;48.764;9.176;2024-01-15T03:43:39;0.60;91.30
26186;DHT22;20067;48.764;9.176;2024-01-15T03:46:05;0.50;91.30
26186;DHT22;20067;48.764;9.176;2024-01-15T03:48:31;0.60;91.30
26186;DHT22;20067;48.764;9.176;2024-01-15T03:50:57;0.60;91.30
26186;DHT22;20067;48.764;9.176;2024-01-15T03:53:23;0.40;91.30
26186;DHT22;20067;48.764;9.176;2024-01-15T03:55:49;0.40;91.30
26186;DHT22;20067;48.764;9.176;2024-01-15T03:58:15;0.50;91.30
26186;DHT22;20067;48.764;9.176;2024-01-15T04:00:41;0.50;91.30
26186;DHT22;20067;48.764;9.176;2024-01-15T04:03:07;0.50;91.30
26186;DHT22;20067;48.764;9.176;2024-01-15T04:05:33;0.60;91.30
26186;DHT22;20067;48.764;9.176;2024-01-15T04:07:58;0.60;91.30
26186;DHT22;20067;48.764;9.176;2024-01-15T04:10:24;0.70;91.30
26186;DHT22;20067;48.764;9.176;2024-01-15T04:12:49;0.70;91.30
26186;DHT22;20067;48.764;9.176;2024-01-15T04:15:15;0.70;91.30
26186;DHT22;20067;48.764;9.176;2024-01-15T04:17:41;0.80;91.30
26186;DHT22;20067;48.764;9.176;2024-01-15T04:20:07;1.00;91.30
26186;DHT22;20067;48.764;9.176;2024-01-15T04:22:35;0.90;91.30
26186;DHT22;20067;48.764;9.176;2024-01-15T04:25:01;0.90;91.30
26186;DHT22;20067;48.764;9.176;2024-01-15T04:27:27;0.90;91.30
26186;DHT22;20067;48.764;9.176;2024-01-15T04:29:53;1.00;91.30
26186;DHT22;20067;48.764;9.176;2024-01-15T04:32:19;1.00;91.30
26186;DHT22;20067;48.764;9.176;2024-01-15T04:34:44;1.00;91.30
26186;DHT22;20067;48.764;9.176;2024-01-15T04:37:10;1.00;91.30
26186;DHT22;20067;48.764;9.176;2024-01-15T04:39:36;1.00;91.30
26186;DHT22;20067;48.764;9.176;2024-01-15T04:42:01;1.00;91.30
26186;DHT22;20067;48.764;9.176;2024-01-15T04:44:27;1.10;91.30
26186;DHT22;20067;48.764;9.176;2024-01-15T04:46:53;1.10;91.30
26186;DHT22;20067;48.764;9.176;2024-01-15T04:49:19;1.00;91.30
26186;DHT22;20067;48.764;9.176;2024-01-15T04:51:44;1.00;91.30
26186;DHT22;20067;48.764;9.176;2024-01-15T04:54:10;1.00;91.30
26186;DHT22;20067;48.764;9.176;2024-01-15T04:56:37;1.10;91.30
26186;DHT22;20067;48.764;9.176;2024-01-15T04:59:02;1.10;91.30
26186;DHT22;20067;48.764;9.176;2024-01-15T05:01:32;1.10;91.30
26186;DHT22;20067;48.764;9.176;2024-01-15T05:03:58;1.10;91.30
26186;DHT22;20067;48.764;9.176;2024-01-15T05:06:23;1.10;91.30
26186;DHT22;20067;48.764;9.176;2024-01-15T05:08:49;1.10;91.30
26186;DHT22;20067;48.764;9.176;2024-01-15T05:11:15;1.00;91.30
26186;DHT22;20067;48.764;9.176;2024-01-15T05:13:40;0.90;91.30
26186;DHT22;20067;48.764;9.176;2024-01-15T05:16:06;0.90;91.30
26186;DHT22;20067;48.764;9.176;2024-01-15T05:18:32;1.00;91.30
26186;DHT22;20067;48.764;9.176;2024-01-15T05:20:57;1.10;91.30
26186;DHT22;20067;48.764;9.176;2024-01-15T05:23:23;1.00;91.30
26186;DHT22;20067;48.764;9.176;2024-01-15T05:25:49;1.00;91.30
26186;DHT22;20067;48.764;9.176;2024-01-15T05:28:14;1.00;91.30
26186;DHT22;20067;48.764;9.176;2024-01-15T05:30:40;0.90;91.30
26186;DHT22;20067;48.764;9.176;2024-01-15T05:33:06;0.90;91.30
26186;DHT22;20067;48.764;9.176;2024-01-15T05:35:33;1.10;91.30
26186;DHT22;20067;48.764;9.176;2024-01-15T05:37:58;1.10;91.30
26186;DHT22;20067;48.764;9.176;2024-01-15T05:40:24;1.10;91.30
26186;DHT22;20067;48.764;9.176;2024-01-15T05:42:50;1.10;91.30
26186;DHT22;20067;48.764;9.176;2024-01-15T05:45:15;1.00;91.30
26186;DHT22;20067;48.764;9.176;2024-01-15T05:47:41;1.00;91.30
26186;DHT22;20067;48.764;9.176;2024-01-15T05:50:07;1.00;91.30
26186;DHT22;20067;48.764;9.176;2024-01-15T05:52:33;1.00;91.30
26186;DHT22;20067;48.764;9.176;2024-01-15T05:54:59;1.00;91.30
26186;DHT22;20067;48.764;9.176;2024-01-15T05:57:24;1.10;91.30
26186;DHT22;20067;48.764;9.176;2024-01-15T05:59:50;1.10;91.30
26186;DHT22;20067;48.764;9.176;2024-01-15T06:02:15;1.10;91.30
26186;DHT22;20067;48.764;9.176;2024-01-15T06:04:41;1.10;91.30
26186;DHT22;20067;48.764;9.176;2024-01-15T06:07:06;1.10;91.30
26186;DHT22;20067;48.764;9.176;2024-01-15T06:09:32;1.10;91.30
26186;DHT22;20067;48.764;9.176;2024-01-15T06:11:58;1.10;91.30
26186;DHT22;20067;48.764;9.176;2024-01-15T06:14:24;1.10;91.30
26186;DHT22;20067;48.764;9.176;2024-01-15T06:16:49;1.20;91.30
26186;DHT22;20067;48.764;9.176;2024-01-15T06:19:15;1.20;91.30
26186;DHT22;20067;48.764;9.176;2024-01-15T06:21:41;1.20;91.30
26186;DHT22;20067;48.764;9.176;2024-01-15T06:24:07;1.20;91.30
26186;DHT22;20067;48.764;9.176;2024-01-15T06:26:35;1.10;91.30
26186;DHT22;20067;48.764;9.176;2024-01-15T06:29:01;1.20;91.30
26186;DHT22;20067;48.764;9.176;2024-01-15T06:31:28;1.20;91.30
26186;DHT22;20067;48.764;9.176;2024-01-15T06:33:54;1.20;91.30
26186;DHT22;20067;48.764;9.176;2024-01-15T06:36:20;1.10;91.30
26186;DHT22;20067;48.764;9.176;2024-01-15T06:38:46;1.10;91.30
26186;DHT22;20067;48.764;9.176;2024-01-15T06:41:11;1.20;91.30
26186;DHT22;20067;48.764;9.176;2024-01-15T06:43:37;1.20;91.30
26186;DHT22;20067;48.764;9.176;2024-01-15T06:46:03;1.10;91.30
26186;DHT22;20067;48.764;9.176;2024-01-15T06:48:28;1.20;91.30
26186;DHT22;20067;48.764;9.176;2024-01-15T06:50:54;1.10;91.30
26186;DHT22;20067;48.764;9.176;2024-01-15T06:53:19;1.20;91.30
26186;DHT22;20067;48.764;9.176;2024-01-15T06:55:46;1.10;91.30
26186;DHT22;20067;48.764;9.176;2024-01-15T06:58:11;1.10;91.30
26186;DHT22;20067;48.764;9.176;2024-01-15T07:00:37;1.10;91.30
26186;DHT22;20067;48.764;9.176;2024-01-15T07:03:03;1.20;91.30
26186;DHT22;20067;48.764;9.176;2024-01-15T07:05:29;1.10;91.30
26186;DHT22;20067;48.764;9.176;2024-01-15T07:07:56;1.20;91.30
26186;DHT22;20067;48.764;9.176;2024-01-15T07:10:21;1.20;91.30
26186;DHT22;20067;48.764;9.176;2024-01-15T07:12:47;1.20;91.30
26186;DHT22;20067;48.764;9.176;2024-01-15T07:15:13;1.20;91.30
26186;DHT22;20067;48.764;9.176;2024-01-15T07:17:38;1.20;91.30
26186;DHT22;20067;48.764;9.176;2024-01-15T07:20:08;1.20;91.30
26186;DHT22;20067;48.764;9.176;2024-01-15T07:22:35;1.20;91.30
26186;DHT22;20067;48.764;9.176;2024-01-15T07:25:01;1.30;91.30
26186;DHT22;20067;48.764;9.176;2024-01-15T07:27:27;1.20;91.30
26186;DHT22;20067;48.764;9.176;2024-01-15T07:29:53;1.30;91.30
26186;DHT22;20067;48.764;9.176;2024-01-15T07:32:18;1.30;91.30
26186;DHT22;20067;48.764;9.176;2024-01-15T07:34:45;1.30;91.30
26186;DHT22;20067;48.764;9.176;2024-01-15T07:37:11;1.30;91.30
26186;DHT22;20067;48.764;9.176;2024-01-15T07:39:37;1.30;91.30
26186;DHT22;20067;48.764;9.176;2024-01-15T07:42:03;1.30;91.30
26186;DHT22;20067;48.764;9.176;2024-01-15T07:44:28;1.30;91.30
26186;DHT22;20067;48.764;9.176;2024-01-15T07:46:54;1.30;91.30
26186;DHT22;20067;48.764;9.176;2024-01-15T07:49:20;1.30;91.30
26186;DHT22;20067;48.764;9.176;2024-01-15T07:51:46;1.40;91.30
26186;DHT22;20067;48.764;9.176;2024-01-15T07:54:12;1.50;91.30
26186;DHT22;20067;48.764;9.176;2024-01-15T07:56:53;1.40;91.30
26186;DHT22;20067;48.764;9.176;2024-01-15T07:59:19;1.40;91.30
26186;DHT22;20067;48.764;9.176;2024-01-15T08:01:45;1.40;91.30
26186;DHT22;20067;48.764;9.176;2024-01-15T08:04:10;1.40;91.30
26186;DHT22;20067;48.764;9.176;2024-01-15T08:06:38;1.50;91.30
26186;DHT22;20067;48.764;9.176;2024-01-15T08:09:04;1.50;91.30
26186;DHT22;20067;48.764;9.176;2024-01-15T08:11:30;1.50;91.30
26186;DHT22;20067;48.764;9.176;2024-01-15T08:13:56;1.60;91.30
26186;DHT22;20067;48.764;9.176;2024-01-15T08:16:22;1.50;91.30
26186;DHT22;20067;48.764;9.176;2024-01-15T08:18:49;1.60;91.30
26186;DHT22;20067;48.764;9.176;2024-01-15T08:21:15;1.60;91.30
26186;DHT22;20067;48.764;9.176;2024-01-15T08:23:41;1.60;91.30
26186;DHT22;20067;48.764;9.176;2024-01-15T08:26:07;1.60;91.30
26186;DHT22;20067;48.764;9.176;2024-01-15T08:28:34;1.60;91.30
26186;DHT22;20067;48.764;9.176;2024-01-15T08:30:59;1.60;91.30
26186;DHT22;20067;48.764;9.176;2024-01-15T08:33:25;1.60;91.30
26186;DHT22;20067;48.764;9.176;2024-01-15T08:35:51;1.70;91.30
26186;DHT22;20067;48.764;9.176;2024-01-15T08:38:16;1.70;91.30
26186;DHT22;20067;48.764;9.176;2024-01-15T08:40:42;1.70;91.30
26186;DHT22;20067;48.764;9.176;2024-01-15T08:43:08;1.80;91.30
26186;DHT22;20067;48.764;9.176;2024-01-15T08:45:33;1.90;91.30
26186;DHT22;20067;48.764;9.176;2024-01-15T08:47:59;1.90;91.30
26186;DHT22;20067;48.764;9.176;2024-01-15T08:50:25;2.10;91.30
26186;DHT22;20067;48.764;9.176;2024-01-15T08:52:50;2.10;91.30
26186;DHT22;20067;48.764;9.176;2024-01-15T08:55:16;2.10;91.30
26186;DHT22;20067;48.764;9.176;2024-01-15T08:57:42;2.10;91.30
26186;DHT22;20067;48.764;9.176;2024-01-15T09:00:09;2.10;91.30
26186;DHT22;20067;48.764;9.176;2024-01-15T09:02:34;2.20;91.20
26186;DHT22;20067;48.764;9.176;2024-01-15T09:05:01;2.20;91.00
26186;DHT22;20067;48.764;9.176;2024-01-15T09:07:27;2.30;90.60
26186;DHT22;20067;48.764;9.176;2024-01-15T09:09:53;2.10;90.20
26186;DHT22;20067;48.764;9.176;2024-01-15T09:12:19;2.20;90.70
26186;DHT22;20067;48.764;9.176;2024-01-15T09:14:49;2.30;90.30
26186;DHT22;20067;48.764;9.176;2024-01-15T09:17:15;2.40;90.00
26186;DHT22;20067;48.764;9.176;2024-01-15T09:19:41;2.40;89.40
26186;DHT22;20067;48.764;9.176;2024-01-15T09:22:08;2.30;89.80
26186;DHT22;20067;48.764;9.176;2024-01-15T09:24:33;2.50;89.90
26186;DHT22;20067;48.764;9.176;2024-01-15T09:26:59;2.60;88.90
26186;DHT22;20067;48.764;9.176;2024-01-15T09:29:25;2.70;88.60
26186;DHT22;20067;48.764;9.176;2024-01-15T09:31:51;2.70;88.80
26186;DHT22;20067;48.764;9.176;2024-01-15T09:34:17;2.70;88.50
26186;DHT22;20067;48.764;9.176;2024-01-15T09:36:43;2.60;88.60
26186;DHT22;20067;48.764;9.176;2024-01-15T09:39:09;2.50;88.80
26186;DHT22;20067;48.764;9.176;2024-01-15T09:41:37;2.40;89.30
26186;DHT22;20067;48.764;9.176;2024-01-15T09:44:05;2.40;89.60
26186;DHT22;20067;48.764;9.176;2024-01-15T09:46:33;2.50;89.40
26186;DHT22;20067;48.764;9.176;2024-01-15T09:48:59;2.70;89.00
26186;DHT22;20067;48.764;9.176;2024-01-15T09:51:25;2.60;88.80
26186;DHT22;20067;48.764;9.176;2024-01-15T09:53:51;2.60;89.40
26186;DHT22;20067;48.764;9.176;2024-01-15T09:56:17;2.70;89.10
26186;DHT22;20067;48.764;9.176;2024-01-15T09:58:44;2.70;89.20
26186;DHT22;20067;48.764;9.176;2024-01-15T10:01:11;2.70;89.00
26186;DHT22;20067;48.764;9.176;2024-01-15T10:03:37;2.70;89.10
26186;DHT22;20067;48.764;9.176;2024-01-15T10:06:05;2.60;89.20
26186;DHT22;20067;48.764;9.176;2024-01-15T10:08:32;2.70;89.20
26186;DHT22;20067;48.764;9.176;2024-01-15T10:10:58;2.80;89.20
26186;DHT22;20067;48.764;9.176;2024-01-15T10:13:23;2.70;89.00
26186;DHT22;20067;48.764;9.176;2024-01-15T10:15:49;2.70;89.20
26186;DHT22;20067;48.764;9.176;2024-01-15T10:18:16;2.70;89.50
26186;DHT22;20067;48.764;9.176;2024-01-15T10:20:41;2.70;89.10
26186;DHT22;20067;48.764;9.176;2024-01-15T10:23:08;2.70;89.40
26186;DHT22;20067;48.764;9.176;2024-01-15T10:25:35;2.70;89.30
26186;DHT22;20067;48.764;9.176;2024-01-15T10:28:03;2.80;89.50
26186;DHT22;20067;48.764;9.176;2024-01-15T10:30:29;2.70;89.40
26186;DHT22;20067;48.764;9.176;2024-01-15T10:33:03;2.80;89.30
26186;DHT22;20067;48.764;9.176;2024-01-15T10:35:30;2.90;89.00
26186;DHT22;20067;48.764;9.176;2024-01-15T10:37:56;2.90;88.90
26186;DHT22;20067;48.764;9.176;2024-01-15T10:40:22;2.90;88.60
26186;DHT22;20067;48.764;9.176;2024-01-15T10:42:47;2.80;89.10
26186;DHT22;20067;48.764;9.176;2024-01-15T10:45:14;2.90;89.10
26186;DHT22;20067;48.764;9.176;2024-01-15T10:47:40;2.80;89.10
26186;DHT22;20067;48.764;9.176;2024-01-15T10:50:07;2.80;89.40
26186;DHT22;20067;48.764;9.176;2024-01-15T10:52:35;2.70;89.40
26186;DHT22;20067;48.764;9.176;2024-01-15T10:55:01;2.80;89.60
26186;DHT22;20067;48.764;9.176;2024-01-15T10:57:28;2.90;89.60
26186;DHT22;20067;48.764;9.176;2024-01-15T10:59:54;2.90;89.30
26186;DHT22;20067;48.764;9.176;2024-01-15T11:02:20;3.00;89.40
26186;DHT22;20067;48.764;9.176;2024-01-15T11:04:46;2.90;89.30
26186;DHT22;20067;48.764;9.176;2024-01-15T11:07:13;3.00;89.40
26186;DHT22;20067;48.764;9.176;2024-01-15T11:09:45;3.10;89.20
26186;DHT22;20067;48.764;9.176;2024-01-15T11:12:16;3.10;89.30
26186;DHT22;20067;48.764;9.176;2024-01-15T11:14:47;2.90;89.70
26186;DHT22;20067;48.764;9.176;2024-01-15T11:17:14;2.80;90.60
26186;DHT22;20067;48.764;9.176;2024-01-15T11:22:10;2.70;91.30
26186;DHT22;20067;48.764;9.176;2024-01-15T11:24:39;2.80;91.30
26186;DHT22;20067;48.764;9.176;2024-01-15T11:27:05;2.70;91.30
26186;DHT22;20067;48.764;9.176;2024-01-15T11:29:33;2.70;91.30
26186;DHT22;20067;48.764;9.176;2024-01-15T11:32:09;2.70;91.30
26186;DHT22;20067;48.764;9.176;2024-01-15T11:37:03;2.80;91.30
26186;DHT22;20067;48.764;9.176;2024-01-15T11:41:59;2.60;91.30
26186;DHT22;20067;48.764;9.176;2024-01-15T11:44:26;2.50;91.30
26186;DHT22;20067;48.764;9.176;2024-01-15T11:47:00;2.40;91.30
26186;DHT22;20067;48.764;9.176;2024-01-15T11:52:19;2.40;91.30
26186;DHT22;20067;48.764;9.176;2024-01-15T11:55:12;2.40;91.30
26186;DHT22;20067;48.764;9.176;2024-01-15T11:57:40;2.40;91.30
26186;DHT22;20067;48.764;9.176;2024-01-15T12:00:10;2.30;91.30
26186;DHT22;20067;48.764;9.176;2024-01-15T12:02:37;2.20;91.30
26186;DHT22;20067;48.764;9.176;2024-01-15T12:05:03;2.30;91.30
26186;DHT22;20067;48.764;9.176;2024-01-15T12:07:29;2.20;91.30
26186;DHT22;20067;48.764;9.176;2024-01-15T12:09:55;2.30;91.30
26186;DHT22;20067;48.764;9.176;2024-01-15T12:12:37;2.30;91.30
26186;DHT22;20067;48.764;9.176;2024-01-15T12:15:05;2.20;91.30
26186;DHT22;20067;48.764;9.176;2024-01-15T12:17:31;2.10;91.30
26186;DHT22;20067;48.764;9.176;2024-01-15T12:19:57;2.10;91.30
26186;DHT22;20067;48.764;9.176;2024-01-15T12:22:22;2.00;91.30
26186;DHT22;20067;48.764;9.176;2024-01-15T12:24:48;2.00;91.30
26186;DHT22;20067;48.764;9.176;2024-01-15T12:27:14;2.00;91.30
26186;DHT22;20067;48.764;9.176;2024-01-15T12:29:40;1.90;91.30
26186;DHT22;20067;48.764;9.176;2024-01-15T12:32:05;1.90;91.30
26186;DHT22;20067;48.764;9.176;2024-01-15T12:34:33;2.00;91.30
26186;DHT22;20067;48.764;9.176;2024-01-15T12:36:59;2.00;91.30
26186;DHT22;20067;48.764;9.176;2024-01-15T12:39:25;1.80;91.30
26186;DHT22;20067;48.764;9.176;2024-01-15T12:41:51;1.70;91.30
26186;DHT22;20067;48.764;9.176;2024-01-15T12:44:17;1.60;91.30
26186;DHT22;20067;48.764;9.176;2024-01-15T12:46:43;1.60;91.30
26186;DHT22;20067;48.764;9.176;2024-01-15T12:49:08;1.50;91.30
26186;DHT22;20067;48.764;9.176;2024-01-15T12:51:34;1.50;91.30
26186;DHT22;20067;48.764;9.176;2024-01-15T12:54:00;1.50;91.30
26186;DHT22;20067;48.764;9.176;2024-01-15T12:56:26;1.40;91.30
26186;DHT22;20067;48.764;9.176;2024-01-15T12:58:51;1.30;91.30
26186;DHT22;20067;48.764;9.176;2024-01-15T13:01:18;1.40;91.30
26186;DHT22;20067;48.764;9.176;2024-01-15T13:03:44;1.50;91.30
26186;DHT22;20067;48.764;9.176;2024-01-15T13:06:09;1.50;91.30
26186;DHT22;20067;48.764;9.176;2024-01-15T13:08:35;1.60;91.30
26186;DHT22;20067;48.764;9.176;2024-01-15T13:11:00;1.60;91.30
26186;DHT22;20067;48.764;9.176;2024-01-15T13:13:26;1.70;91.30
26186;DHT22;20067;48.764;9.176;2024-01-15T13:15:53;1.90;91.30
26186;DHT22;20067;48.764;9.176;2024-01-15T13:18:18;1.90;91.30
26186;DHT22;20067;48.764;9.176;2024-01-15T13:20:44;2.00;91.30
26186;DHT22;20067;48.764;9.176;2024-01-15T13:23:11;2.10;91.30
26186;DHT22;20067;48.764;9.176;2024-01-15T13:25:37;2.10;91.30
26186;DHT22;20067;48.764;9.176;2024-01-15T13:28:05;2.10;91.30
26186;DHT22;20067;48.764;9.176;2024-01-15T13:30:30;2.10;91.30
26186;DHT22;20067;48.764;9.176;2024-01-15T13:32:56;2.10;91.30
26186;DHT22;20067;48.764;9.176;2024-01-15T13:35:23;2.00;91.30
26186;DHT22;20067;48.764;9.176;2024-01-15T13:37:49;2.00;91.30
26186;DHT22;20067;48.764;9.176;2024-01-15T13:40:14;2.00;91.30
26186;DHT22;20067;48.764;9.176;2024-01-15T13:42:42;1.90;91.30
26186;DHT22;20067;48.764;9.176;2024-01-15T13:45:08;1.80;91.30
26186;DHT22;20067;48.764;9.176;2024-01-15T13:47:34;1.80;91.30
26186;DHT22;20067;48.764;9.176;2024-01-15T13:50:01;1.90;91.30
26186;DHT22;20067;48.764;9.176;2024-01-15T13:52:29;1.90;91.30
26186;DHT22;20067;48.764;9.176;2024-01-15T13:54:57;1.90;91.30
26186;DHT22;20067;48.764;9.176;2024-01-15T13:57:26;2.00;91.30
26186;DHT22;20067;48.764;9.176;2024-01-15T13:59:54;2.00;91.30
26186;DHT22;20067;48.764;9.176;2024-01-15T14:02:20;2.00;91.30
26186;DHT22;20067;48.764;9.176;2024-01-15T14:04:49;2.10;91.30
26186;DHT22;20067;48.764;9.176;2024-01-15T14:07:15;2.10;91.30
26186;DHT22;20067;48.764;9.176;2024-01-15T14:09:40;2.20;91.30
26186;DHT22;20067;48.764;9.176;2024-01-15T14:12:06;2.20;91.30
26186;DHT22;20067;48.764;9.176;2024-01-15T14:14:32;2.20;91.30
26186;DHT22;20067;48.764;9.176;2024-01-15T14:16:58;2.20;91.30
26186;DHT22;20067;48.764;9.176;2024-01-15T14:19:24;2.20;91.30
26186;DHT22;20067;48.764;9.176;2024-01-15T14:21:50;2.10;91.30
26186;DHT22;20067;48.764;9.176;2024-01-15T14:24:15;2.20;91.30
26186;DHT22;20067;48.764;9.176;2024-01-15T14:26:42;2.10;91.30
26186;DHT22;20067;48.764;9.176;2024-01-15T14:29:08;2.00;91.30
26186;DHT22;20067;48.764;9.176;2024-01-15T14:31:33;2.00;91.30
26186;DHT22;20067;48.764;9.176;2024-01-15T14:33:59;2.00;91.30
26186;DHT22;20067;48.764;9.176;2024-01-15T14:36:25;2.00;91.30
26186;DHT22;20067;48.764;9.176;2024-01-15T14:38:51;2.10;91.30
26186;DHT22;20067;48.764;9.176;2024-01-15T14:41:17;2.10;91.30
26186;DHT22;20067;48.764;9.176;2024-01-15T14:43:42;2.00;91.30
26186;DHT22;20067;48.764;9.176;2024-01-15T14:46:08;1.90;91.30
26186;DHT22;20067;48.764;9.176;2024-01-15T14:48:34;1.80;91.30
26186;DHT22;20067;48.764;9.176;2024-01-15T14:50:59;2.00;91.30
26186;DHT22;20067;48.764;9.176;2024-01-15T14:53:25;1.90;91.30
26186;DHT22;20067;48.764;9.176;2024-01-15T14:55:50;1.90;91.30
26186;DHT22;20067;48.764;9.176;2024-01-15T14:58:16;2.10;91.30
26186;DHT22;20067;48.764;9.176;2024-01-15T15:00:42;2.10;91.30
26186;DHT22;20067;48.764;9.176;2024-01-15T15:03:07;1.90;91.30
26186;DHT22;20067;48.764;9.176;2024-01-15T15:05:33;2.00;91.30
26186;DHT22;20067;48.764;9.176;2024-01-15T15:07:58;2.10;91.30
26186;DHT22;20067;48.764;9.176;2024-01-15T15:10:24;2.10;91.30
26186;DHT22;20067;48.764;9.176;2024-01-15T15:12:50;2.10;91.30
26186;DHT22;20067;48.764;9.176;2024-01-15T15:15:15;2.20;91.30
26186;DHT22;20067;48.764;9.176;2024-01-15T15:17:43;2.20;91.30
26186;DHT22;20067;48.764;9.176;2024-01-15T15:20:09;2.10;91.30
26186;DHT22;20067;48.764;9.176;2024-01-15T15:22:35;1.90;91.30
26186;DHT22;20067;48.764;9.176;2024-01-15T15:25:01;2.00;91.30
26186;DHT22;20067;48.764;9.176;2024-01-15T15:27:26;2.10;91.30
26186;DHT22;20067;48.764;9.176;2024-01-15T15:29:53;2.20;91.30
26186;DHT22;20067;48.764;9.176;2024-01-15T15:32:19;2.10;91.30
26186;DHT22;20067;48.764;9.176;2024-01-15T15:34:44;2.10;91.30
26186;DHT22;20067;48.764;9.176;2024-01-15T15:37:10;2.20;91.30
26186;DHT22;20067;48.764;9.176;2024-01-15T15:39:36;2.20;91.30
26186;DHT22;20067;48.764;9.176;2024-01-15T15:42:03;2.30;91.30
26186;DHT22;20067;48.764;9.176;2024-01-15T15:44:28;2.30;91.30
26186;DHT22;20067;48.764;9.176;2024-01-15T15:46:54;2.30;91.30
26186;DHT22;20067;48.764;9.176;2024-01-15T15:49:20;2.30;91.30